sensor_id;sensor_type;location;lat;lon;timestamp;P1;durP1;ratioP1;P2;durP2;ratioP2
3083;SDS011;1552;51.952;7.618;2023-04-29T00:01:32;64.17;;;32.03;;
3083;SDS011;1552;51.952;7.618;2023-04-29T00:03:59;63.17;;;32.20;;
3083;SDS011;1552;51.952;7.618;2023-04-29T00:06:27;62.87;;;33.67;;
3083;SDS011;1552;51.952;7.618;2023-04-29T00:08:53;61.03;;;32.90;;
3083;SDS011;1552;51.952;7.618;2023-04-29T00:11:19;63.23;;;32.57;;
3083;SDS011;1552;51.952;7.618;2023-04-29T00:13:46;67.73;;;35.07;;
3083;SDS011;1552;51.952;7.618;2023-04-29T00:16:12;65.97;;;33.70;;
3083;SDS011;1552;51.952;7.618;2023-04-29T00:18:38;76.07;;;36.53;;
3083;SDS011;1552;51.952;7.618;2023-04-29T00:21:05;69.63;;;35.33;;
3083;SDS011;1552;51.952;7.618;2023-04-29T00:23:33;72.40;;;34.50;;
3083;SDS011;1552;51.952;7.618;2023-04-29T00:25:59;66.07;;;32.60;;
3083;SDS011;1552;51.952;7.618;2023-04-29T00:28:26;66.20;;;33.17;;
3083;SDS011;1552;51.952;7.618;2023-04-29T00:30:52;63.23;;;31.97;;
3083;SDS011;1552;51.952;7.618;2023-04-29T00:33:20;65.93;;;32.30;;
3083;SDS011;1552;51.952;7.618;2023-04-29T00:35:46;61.43;;;32.10;;
3083;SDS011;1552;51.952;7.618;2023-04-29T00:38:12;67.23;;;33.73;;
3083;SDS011;1552;51.952;7.618;2023-04-29T00:40:40;68.30;;;33.77;;
3083;SDS011;1552;51.952;7.618;2023-04-29T00:43:07;70.97;;;34.23;;
3083;SDS011;1552;51.952;7.618;2023-04-29T00:45:34;77.07;;;35.27;;
3083;SDS011;1552;51.952;7.618;2023-04-29T00:48:00;71.50;;;34.17;;
3083;SDS011;1552;51.952;7.618;2023-04-29T00:50:26;73.50;;;34.50;;
3083;SDS011;1552;51.952;7.618;2023-04-29T00:52:53;74.60;;;33.50;;
3083;SDS011;1552;51.952;7.618;2023-04-29T00:55:19;69.70;;;34.67;;
3083;SDS011;1552;51.952;7.618;2023-04-29T00:57:47;76.00;;;35.37;;
3083;SDS011;1552;51.952;7.618;2023-04-29T01:00:16;75.07;;;34.93;;
3083;SDS011;1552;51.952;7.618;2023-04-29T01:02:43;68.07;;;32.57;;
3083;SDS011;1552;51.952;7.618;2023-04-29T01:05:09;75.67;;;33.93;;
3083;SDS011;1552;51.952;7.618;2023-04-29T01:07:36;73.17;;;32.00;;
3083;SDS011;1552;51.952;7.618;2023-04-29T01:10:08;70.50;;;31.73;;
3083;SDS011;1552;51.952;7.618;2023-04-29T01:12:37;63.33;;;29.80;;
3083;SDS011;1552;51.952;7.618;2023-04-29T01:15:09;63.23;;;29.53;;
3083;SDS011;1552;51.952;7.618;2023-04-29T01:17:38;60.70;;;29.10;;
3083;SDS011;1552;51.952;7.618;2023-04-29T01:20:06;60.43;;;28.90;;
3083;SDS011;1552;51.952;7.618;2023-04-29T01:22:34;63.07;;;30.77;;
3083;SDS011;1552;51.952;7.618;2023-04-29T01:25:02;59.67;;;28.47;;
3083;SDS011;1552;51.952;7.618;2023-04-29T01:27:30;61.47;;;29.67;;
3083;SDS011;1552;51.952;7.618;2023-04-29T01:29:59;64.77;;;32.20;;
3083;SDS011;1552;51.952;7.618;2023-04-29T01:32:28;69.23;;;31.40;;
3083;SDS011;1552;51.952;7.618;2023-04-29T01:34:58;60.63;;;28.93;;
3083;SDS011;1552;51.952;7.618;2023-04-29T01:37:27;57.37;;;29.10;;
3083;SDS011;1552;51.952;7.618;2023-04-29T01:39:59;62.67;;;29.73;;
3083;SDS011;1552;51.952;7.618;2023-04-29T01:42:33;58.57;;;27.67;;
3083;SDS011;1552;51.952;7.618;2023-04-29T01:45:02;58.03;;;26.93;;
3083;SDS011;1552;51.952;7.618;2023-04-29T01:47:30;63.17;;;29.00;;
3083;SDS011;1552;51.952;7.618;2023-04-29T01:49:57;57.40;;;28.23;;
3083;SDS011;1552;51.952;7.618;2023-04-29T01:52:24;54.47;;;27.80;;
3083;SDS011;1552;51.952;7.618;2023-04-29T01:54:52;54.87;;;27.50;;
3083;SDS011;1552;51.952;7.618;2023-04-29T01:57:18;50.23;;;26.50;;
3083;SDS011;1552;51.952;7.618;2023-04-29T01:59:46;51.33;;;25.17;;
3083;SDS011;1552;51.952;7.618;2023-04-29T02:02:13;51.27;;;25.97;;
3083;SDS011;1552;51.952;7.618;2023-04-29T02:04:39;45.97;;;23.37;;
3083;SDS011;1552;51.952;7.618;2023-04-29T02:07:07;46.47;;;23.20;;
3083;SDS011;1552;51.952;7.618;2023-04-29T02:09:33;42.17;;;22.93;;
3083;SDS011;1552;51.952;7.618;2023-04-29T02:11:59;42.00;;;22.27;;
3083;SDS011;1552;51.952;7.618;2023-04-29T02:14:25;41.17;;;21.80;;
3083;SDS011;1552;51.952;7.618;2023-04-29T02:16:53;42.13;;;23.30;;
3083;SDS011;1552;51.952;7.618;2023-04-29T02:19:19;43.30;;;22.57;;
3083;SDS011;1552;51.952;7.618;2023-04-29T02:21:46;36.47;;;21.07;;
3083;SDS011;1552;51.952;7.618;2023-04-29T02:24:12;40.07;;;22.23;;
3083;SDS011;1552;51.952;7.618;2023-04-29T02:26:38;38.43;;;21.57;;
3083;SDS011;1552;51.952;7.618;2023-04-29T02:29:05;41.90;;;22.30;;
3083;SDS011;1552;51.952;7.618;2023-04-29T02:31:31;45.83;;;22.67;;
3083;SDS011;1552;51.952;7.618;2023-04-29T02:33:59;43.50;;;24.53;;
3083;SDS011;1552;51.952;7.618;2023-04-29T02:36:25;41.43;;;23.30;;
3083;SDS011;1552;51.952;7.618;2023-04-29T02:38:52;46.03;;;23.77;;
3083;SDS011;1552;51.952;7.618;2023-04-29T02:41:20;47.70;;;25.10;;
3083;SDS011;1552;51.952;7.618;2023-04-29T02:43:46;46.13;;;25.87;;
3083;SDS011;1552;51.952;7.618;2023-04-29T02:46:13;47.53;;;26.93;;
3083;SDS011;1552;51.952;7.618;2023-04-29T02:48:40;51.93;;;26.83;;
3083;SDS011;1552;51.952;7.618;2023-04-29T02:51:07;46.87;;;26.80;;
3083;SDS011;1552;51.952;7.618;2023-04-29T02:53:33;52.43;;;28.33;;
3083;SDS011;1552;51.952;7.618;2023-04-29T02:56:00;47.93;;;26.17;;
3083;SDS011;1552;51.952;7.618;2023-04-29T02:58:26;48.80;;;28.67;;
3083;SDS011;1552;51.952;7.618;2023-04-29T03:00:53;51.13;;;29.33;;
3083;SDS011;1552;51.952;7.618;2023-04-29T03:03:19;52.57;;;29.47;;
3083;SDS011;1552;51.952;7.618;2023-04-29T03:05:47;51.30;;;29.43;;
3083;SDS011;1552;51.952;7.618;2023-04-29T03:08:14;56.37;;;29.60;;
3083;SDS011;1552;51.952;7.618;2023-04-29T03:10:41;58.43;;;30.93;;
3083;SDS011;1552;51.952;7.618;2023-04-29T03:13:07;48.80;;;28.67;;
3083;SDS011;1552;51.952;7.618;2023-04-29T03:15:33;47.37;;;27.30;;
3083;SDS011;1552;51.952;7.618;2023-04-29T03:18:00;49.80;;;27.83;;
3083;SDS011;1552;51.952;7.618;2023-04-29T03:20:28;52.30;;;29.33;;
3083;SDS011;1552;51.952;7.618;2023-04-29T03:22:56;51.63;;;30.37;;
3083;SDS011;1552;51.952;7.618;2023-04-29T03:25:25;51.47;;;29.53;;
3083;SDS011;1552;51.952;7.618;2023-04-29T03:27:52;55.20;;;30.37;;
3083;SDS011;1552;51.952;7.618;2023-04-29T03:30:19;49.37;;;29.23;;
3083;SDS011;1552;51.952;7.618;2023-04-29T03:32:45;51.90;;;30.20;;
3083;SDS011;1552;51.952;7.618;2023-04-29T03:35:11;57.37;;;31.60;;
3083;SDS011;1552;51.952;7.618;2023-04-29T03:37:38;50.93;;;30.77;;
3083;SDS011;1552;51.952;7.618;2023-04-29T03:40:05;50.50;;;30.17;;
3083;SDS011;1552;51.952;7.618;2023-04-29T03:42:33;50.13;;;29.90;;
3083;SDS011;1552;51.952;7.618;2023-04-29T03:45:00;55.63;;;31.07;;
3083;SDS011;1552;51.952;7.618;2023-04-29T03:47:26;51.83;;;28.60;;
3083;SDS011;1552;51.952;7.618;2023-04-29T03:49:52;50.33;;;28.43;;
3083;SDS011;1552;51.952;7.618;2023-04-29T03:52:19;47.17;;;27.70;;
3083;SDS011;1552;51.952;7.618;2023-04-29T03:54:45;50.97;;;28.77;;
3083;SDS011;1552;51.952;7.618;2023-04-29T03:57:12;46.03;;;29.00;;
3083;SDS011;1552;51.952;7.618;2023-04-29T03:59:39;51.00;;;29.03;;
3083;SDS011;1552;51.952;7.618;2023-04-29T04:02:06;48.83;;;29.10;;
3083;SDS011;1552;51.952;7.618;2023-04-29T04:04:32;46.33;;;28.53;;
3083;SDS011;1552;51.952;7.618;2023-04-29T04:06:58;47.03;;;28.63;;
3083;SDS011;1552;51.952;7.618;2023-04-29T04:09:25;45.97;;;28.30;;
3083;SDS011;1552;51.952;7.618;2023-04-29T04:11:51;45.60;;;26.97;;
3083;SDS011;1552;51.952;7.618;2023-04-29T04:14:18;40.83;;;26.33;;
3083;SDS011;1552;51.952;7.618;2023-04-29T04:16:45;44.63;;;26.83;;
3083;SDS011;1552;51.952;7.618;2023-04-29T04:19:14;43.33;;;26.40;;
3083;SDS011;1552;51.952;7.618;2023-04-29T04:21:41;42.37;;;27.07;;
3083;SDS011;1552;51.952;7.618;2023-04-29T04:24:07;41.67;;;26.13;;
3083;SDS011;1552;51.952;7.618;2023-04-29T04:26:33;43.97;;;26.93;;
3083;SDS011;1552;51.952;7.618;2023-04-29T04:29:00;46.57;;;28.27;;
3083;SDS011;1552;51.952;7.618;2023-04-29T04:31:26;49.47;;;27.47;;
3083;SDS011;1552;51.952;7.618;2023-04-29T04:33:54;46.20;;;28.37;;
3083;SDS011;1552;51.952;7.618;2023-04-29T04:36:21;47.70;;;27.97;;
3083;SDS011;1552;51.952;7.618;2023-04-29T04:38:48;47.93;;;26.53;;
3083;SDS011;1552;51.952;7.618;2023-04-29T04:41:14;45.13;;;28.50;;
3083;SDS011;1552;51.952;7.618;2023-04-29T04:43:40;44.60;;;25.60;;
3083;SDS011;1552;51.952;7.618;2023-04-29T04:46:10;42.50;;;26.10;;
3083;SDS011;1552;51.952;7.618;2023-04-29T04:48:37;48.63;;;27.33;;
3083;SDS011;1552;51.952;7.618;2023-04-29T04:51:07;44.47;;;27.07;;
3083;SDS011;1552;51.952;7.618;2023-04-29T04:53:34;41.93;;;25.43;;
3083;SDS011;1552;51.952;7.618;2023-04-29T04:56:01;45.90;;;27.60;;
3083;SDS011;1552;51.952;7.618;2023-04-29T04:58:27;43.27;;;26.13;;
3083;SDS011;1552;51.952;7.618;2023-04-29T05:00:55;49.27;;;27.73;;
3083;SDS011;1552;51.952;7.618;2023-04-29T05:03:21;45.57;;;26.93;;
3083;SDS011;1552;51.952;7.618;2023-04-29T05:05:51;47.97;;;27.57;;
3083;SDS011;1552;51.952;7.618;2023-04-29T05:08:19;47.57;;;27.63;;
3083;SDS011;1552;51.952;7.618;2023-04-29T05:10:45;53.63;;;28.13;;
3083;SDS011;1552;51.952;7.618;2023-04-29T05:13:12;48.03;;;27.47;;
3083;SDS011;1552;51.952;7.618;2023-04-29T05:15:38;50.13;;;28.67;;
3083;SDS011;1552;51.952;7.618;2023-04-29T05:18:04;45.77;;;27.73;;
3083;SDS011;1552;51.952;7.618;2023-04-29T05:20:31;49.57;;;26.83;;
3083;SDS011;1552;51.952;7.618;2023-04-29T05:22:57;46.23;;;26.07;;
3083;SDS011;1552;51.952;7.618;2023-04-29T05:25:25;42.03;;;24.97;;
3083;SDS011;1552;51.952;7.618;2023-04-29T05:27:51;47.07;;;24.97;;
3083;SDS011;1552;51.952;7.618;2023-04-29T05:30:18;48.57;;;26.13;;
3083;SDS011;1552;51.952;7.618;2023-04-29T05:32:45;49.20;;;26.83;;
3083;SDS011;1552;51.952;7.618;2023-04-29T05:35:12;43.07;;;24.87;;
3083;SDS011;1552;51.952;7.618;2023-04-29T05:37:39;46.27;;;25.23;;
3083;SDS011;1552;51.952;7.618;2023-04-29T05:40:06;49.47;;;25.00;;
3083;SDS011;1552;51.952;7.618;2023-04-29T05:42:34;43.17;;;25.93;;
3083;SDS011;1552;51.952;7.618;2023-04-29T05:45:00;44.30;;;26.40;;
3083;SDS011;1552;51.952;7.618;2023-04-29T05:47:27;43.30;;;25.17;;
3083;SDS011;1552;51.952;7.618;2023-04-29T05:49:53;44.00;;;25.20;;
3083;SDS011;1552;51.952;7.618;2023-04-29T05:52:19;46.53;;;26.20;;
3083;SDS011;1552;51.952;7.618;2023-04-29T05:54:46;46.30;;;26.03;;
3083;SDS011;1552;51.952;7.618;2023-04-29T05:57:12;43.73;;;26.63;;
3083;SDS011;1552;51.952;7.618;2023-04-29T05:59:40;46.97;;;26.13;;
3083;SDS011;1552;51.952;7.618;2023-04-29T06:02:06;45.03;;;27.43;;
3083;SDS011;1552;51.952;7.618;2023-04-29T06:04:34;47.33;;;26.30;;
3083;SDS011;1552;51.952;7.618;2023-04-29T06:07:01;49.00;;;27.17;;
3083;SDS011;1552;51.952;7.618;2023-04-29T06:09:29;45.60;;;26.73;;
3083;SDS011;1552;51.952;7.618;2023-04-29T06:11:55;45.53;;;26.30;;
3083;SDS011;1552;51.952;7.618;2023-04-29T06:14:22;52.37;;;27.37;;
3083;SDS011;1552;51.952;7.618;2023-04-29T06:16:52;46.53;;;26.93;;
3083;SDS011;1552;51.952;7.618;2023-04-29T06:19:21;50.00;;;29.90;;
3083;SDS011;1552;51.952;7.618;2023-04-29T06:21:49;47.40;;;27.37;;
3083;SDS011;1552;51.952;7.618;2023-04-29T06:24:15;53.97;;;29.57;;
3083;SDS011;1552;51.952;7.618;2023-04-29T06:26:42;47.07;;;27.60;;
3083;SDS011;1552;51.952;7.618;2023-04-29T06:29:09;45.13;;;27.40;;
3083;SDS011;1552;51.952;7.618;2023-04-29T06:31:35;48.00;;;28.50;;
3083;SDS011;1552;51.952;7.618;2023-04-29T06:34:03;53.00;;;31.03;;
3083;SDS011;1552;51.952;7.618;2023-04-29T06:36:30;53.50;;;30.70;;
3083;SDS011;1552;51.952;7.618;2023-04-29T06:38:56;52.47;;;27.77;;
3083;SDS011;1552;51.952;7.618;2023-04-29T06:41:22;54.17;;;30.67;;
3083;SDS011;1552;51.952;7.618;2023-04-29T06:43:49;57.77;;;34.50;;
3083;SDS011;1552;51.952;7.618;2023-04-29T06:46:15;56.73;;;31.97;;
3083;SDS011;1552;51.952;7.618;2023-04-29T06:48:42;54.43;;;31.00;;
3083;SDS011;1552;51.952;7.618;2023-04-29T06:51:09;56.50;;;31.90;;
3083;SDS011;1552;51.952;7.618;2023-04-29T06:53:36;58.97;;;32.67;;
3083;SDS011;1552;51.952;7.618;2023-04-29T06:56:02;59.70;;;36.73;;
3083;SDS011;1552;51.952;7.618;2023-04-29T06:58:29;61.20;;;33.73;;
3083;SDS011;1552;51.952;7.618;2023-04-29T07:00:56;55.27;;;32.63;;
3083;SDS011;1552;51.952;7.618;2023-04-29T07:03:22;55.00;;;32.43;;
3083;SDS011;1552;51.952;7.618;2023-04-29T07:05:49;55.13;;;32.07;;
3083;SDS011;1552;51.952;7.618;2023-04-29T07:08:17;55.53;;;32.33;;
3083;SDS011;1552;51.952;7.618;2023-04-29T07:10:43;56.07;;;32.90;;
3083;SDS011;1552;51.952;7.618;2023-04-29T07:13:10;59.17;;;33.97;;
3083;SDS011;1552;51.952;7.618;2023-04-29T07:15:37;58.20;;;32.50;;
3083;SDS011;1552;51.952;7.618;2023-04-29T07:18:03;57.27;;;31.63;;
3083;SDS011;1552;51.952;7.618;2023-04-29T07:20:30;53.53;;;32.47;;
3083;SDS011;1552;51.952;7.618;2023-04-29T07:22:56;55.77;;;32.80;;
3083;SDS011;1552;51.952;7.618;2023-04-29T07:25:24;61.27;;;33.13;;
3083;SDS011;1552;51.952;7.618;2023-04-29T07:27:51;52.37;;;31.63;;
3083;SDS011;1552;51.952;7.618;2023-04-29T07:30:17;51.77;;;29.70;;
3083;SDS011;1552;51.952;7.618;2023-04-29T07:32:44;53.30;;;31.03;;
3083;SDS011;1552;51.952;7.618;2023-04-29T07:35:10;51.63;;;31.03;;
3083;SDS011;1552;51.952;7.618;2023-04-29T07:37:36;51.20;;;30.73;;
3083;SDS011;1552;51.952;7.618;2023-04-29T07:40:03;55.50;;;30.90;;
3083;SDS011;1552;51.952;7.618;2023-04-29T07:42:31;58.27;;;31.33;;
3083;SDS011;1552;51.952;7.618;2023-04-29T07:44:57;51.97;;;29.67;;
3083;SDS011;1552;51.952;7.618;2023-04-29T07:47:24;52.03;;;30.63;;
3083;SDS011;1552;51.952;7.618;2023-04-29T07:49:50;49.83;;;29.23;;
3083;SDS011;1552;51.952;7.618;2023-04-29T07:52:17;47.73;;;30.17;;
3083;SDS011;1552;51.952;7.618;2023-04-29T07:54:43;49.07;;;29.37;;
3083;SDS011;1552;51.952;7.618;2023-04-29T07:57:10;52.73;;;29.73;;
3083;SDS011;1552;51.952;7.618;2023-04-29T07:59:37;45.50;;;29.00;;
3083;SDS011;1552;51.952;7.618;2023-04-29T08:02:04;42.20;;;27.10;;
3083;SDS011;1552;51.952;7.618;2023-04-29T08:04:30;44.67;;;27.87;;
3083;SDS011;1552;51.952;7.618;2023-04-29T08:06:57;46.47;;;28.73;;
3083;SDS011;1552;51.952;7.618;2023-04-29T08:09:23;46.97;;;28.77;;
3083;SDS011;1552;51.952;7.618;2023-04-29T08:11:49;49.63;;;28.20;;
3083;SDS011;1552;51.952;7.618;2023-04-29T08:14:16;41.03;;;25.90;;
3083;SDS011;1552;51.952;7.618;2023-04-29T08:16:44;47.63;;;28.93;;
3083;SDS011;1552;51.952;7.618;2023-04-29T08:19:10;42.97;;;26.90;;
3083;SDS011;1552;51.952;7.618;2023-04-29T08:21:36;43.30;;;27.40;;
3083;SDS011;1552;51.952;7.618;2023-04-29T08:24:03;43.33;;;26.20;;
3083;SDS011;1552;51.952;7.618;2023-04-29T08:26:29;42.63;;;26.73;;
3083;SDS011;1552;51.952;7.618;2023-04-29T08:28:56;39.07;;;25.40;;
3083;SDS011;1552;51.952;7.618;2023-04-29T08:31:22;38.43;;;25.17;;
3083;SDS011;1552;51.952;7.618;2023-04-29T08:33:51;41.87;;;26.37;;
3083;SDS011;1552;51.952;7.618;2023-04-29T08:36:17;36.27;;;24.90;;
3083;SDS011;1552;51.952;7.618;2023-04-29T08:38:44;36.97;;;24.20;;
3083;SDS011;1552;51.952;7.618;2023-04-29T08:41:10;36.03;;;23.60;;
3083;SDS011;1552;51.952;7.618;2023-04-29T08:43:39;42.63;;;25.73;;
3083;SDS011;1552;51.952;7.618;2023-04-29T08:46:05;41.17;;;24.27;;
3083;SDS011;1552;51.952;7.618;2023-04-29T08:48:32;39.13;;;23.33;;
3083;SDS011;1552;51.952;7.618;2023-04-29T08:51:01;34.67;;;23.57;;
3083;SDS011;1552;51.952;7.618;2023-04-29T08:53:28;34.40;;;23.10;;
3083;SDS011;1552;51.952;7.618;2023-04-29T08:55:54;37.00;;;22.00;;
3083;SDS011;1552;51.952;7.618;2023-04-29T08:58:23;29.67;;;20.63;;
3083;SDS011;1552;51.952;7.618;2023-04-29T09:00:50;33.73;;;20.70;;
3083;SDS011;1552;51.952;7.618;2023-04-29T09:03:21;39.27;;;22.47;;
3083;SDS011;1552;51.952;7.618;2023-04-29T09:05:52;28.00;;;20.40;;
3083;SDS011;1552;51.952;7.618;2023-04-29T09:08:20;31.90;;;20.63;;
3083;SDS011;1552;51.952;7.618;2023-04-29T09:10:47;27.77;;;20.17;;
3083;SDS011;1552;51.952;7.618;2023-04-29T09:13:22;29.07;;;18.37;;
3083;SDS011;1552;51.952;7.618;2023-04-29T09:15:48;32.23;;;19.90;;
3083;SDS011;1552;51.952;7.618;2023-04-29T09:20:56;27.57;;;19.13;;
3083;SDS011;1552;51.952;7.618;2023-04-29T09:23:23;30.30;;;19.83;;
3083;SDS011;1552;51.952;7.618;2023-04-29T09:26:01;29.27;;;19.10;;
3083;SDS011;1552;51.952;7.618;2023-04-29T09:28:28;30.67;;;19.17;;
3083;SDS011;1552;51.952;7.618;2023-04-29T09:30:54;33.67;;;22.37;;
3083;SDS011;1552;51.952;7.618;2023-04-29T09:33:20;28.57;;;19.30;;
3083;SDS011;1552;51.952;7.618;2023-04-29T09:35:47;26.30;;;18.70;;
3083;SDS011;1552;51.952;7.618;2023-04-29T09:38:14;23.90;;;17.73;;
3083;SDS011;1552;51.952;7.618;2023-04-29T09:40:42;26.80;;;18.43;;
3083;SDS011;1552;51.952;7.618;2023-04-29T09:43:12;28.07;;;18.73;;
3083;SDS011;1552;51.952;7.618;2023-04-29T09:45:39;26.57;;;17.67;;
3083;SDS011;1552;51.952;7.618;2023-04-29T09:48:06;28.03;;;18.10;;
3083;SDS011;1552;51.952;7.618;2023-04-29T09:50:34;25.60;;;17.17;;
3083;SDS011;1552;51.952;7.618;2023-04-29T09:53:01;28.03;;;18.20;;
3083;SDS011;1552;51.952;7.618;2023-04-29T09:55:27;27.30;;;18.13;;
3083;SDS011;1552;51.952;7.618;2023-04-29T09:57:57;26.73;;;16.53;;
3083;SDS011;1552;51.952;7.618;2023-04-29T10:00:24;24.57;;;17.47;;
3083;SDS011;1552;51.952;7.618;2023-04-29T10:02:53;23.70;;;16.17;;
3083;SDS011;1552;51.952;7.618;2023-04-29T10:05:19;21.50;;;16.60;;
3083;SDS011;1552;51.952;7.618;2023-04-29T10:07:47;23.87;;;15.87;;
3083;SDS011;1552;51.952;7.618;2023-04-29T10:10:15;43.37;;;27.73;;
3083;SDS011;1552;51.952;7.618;2023-04-29T10:12:42;28.03;;;17.63;;
3083;SDS011;1552;51.952;7.618;2023-04-29T10:15:14;19.88;;;14.75;;
3083;SDS011;1552;51.952;7.618;2023-04-29T10:17:43;25.88;;;16.30;;
3083;SDS011;1552;51.952;7.618;2023-04-29T10:20:11;21.80;;;16.87;;
3083;SDS011;1552;51.952;7.618;2023-04-29T10:22:41;22.97;;;16.17;;
3083;SDS011;1552;51.952;7.618;2023-04-29T10:25:10;21.17;;;15.50;;
3083;SDS011;1552;51.952;7.618;2023-04-29T10:27:38;24.13;;;15.87;;
3083;SDS011;1552;51.952;7.618;2023-04-29T10:30:07;23.58;;;15.85;;
3083;SDS011;1552;51.952;7.618;2023-04-29T10:32:36;21.53;;;14.83;;
3083;SDS011;1552;51.952;7.618;2023-04-29T10:35:04;21.17;;;14.93;;
3083;SDS011;1552;51.952;7.618;2023-04-29T10:37:32;19.37;;;12.97;;
3083;SDS011;1552;51.952;7.618;2023-04-29T10:39:59;19.38;;;13.65;;
3083;SDS011;1552;51.952;7.618;2023-04-29T10:42:42;19.67;;;14.50;;
3083;SDS011;1552;51.952;7.618;2023-04-29T10:45:22;22.27;;;14.07;;
3083;SDS011;1552;51.952;7.618;2023-04-29T10:48:09;19.75;;;14.90;;
3083;SDS011;1552;51.952;7.618;2023-04-29T10:50:39;20.20;;;14.27;;
3083;SDS011;1552;51.952;7.618;2023-04-29T10:53:06;17.37;;;13.57;;
3083;SDS011;1552;51.952;7.618;2023-04-29T10:55:34;17.23;;;12.95;;
3083;SDS011;1552;51.952;7.618;2023-04-29T10:58:01;17.15;;;12.52;;
3083;SDS011;1552;51.952;7.618;2023-04-29T11:00:28;17.52;;;12.50;;
3083;SDS011;1552;51.952;7.618;2023-04-29T11:02:55;20.20;;;12.85;;
3083;SDS011;1552;51.952;7.618;2023-04-29T11:05:29;15.43;;;11.43;;
3083;SDS011;1552;51.952;7.618;2023-04-29T11:08:09;17.33;;;10.52;;
3083;SDS011;1552;51.952;7.618;2023-04-29T11:10:37;17.53;;;11.40;;
3083;SDS011;1552;51.952;7.618;2023-04-29T11:13:21;15.25;;;11.25;;
3083;SDS011;1552;51.952;7.618;2023-04-29T11:15:49;15.10;;;11.68;;
3083;SDS011;1552;51.952;7.618;2023-04-29T11:18:16;16.42;;;11.20;;
3083;SDS011;1552;51.952;7.618;2023-04-29T11:23:29;14.85;;;11.50;;
3083;SDS011;1552;51.952;7.618;2023-04-29T11:25:55;14.77;;;11.63;;
3083;SDS011;1552;51.952;7.618;2023-04-29T11:28:23;17.40;;;10.80;;
3083;SDS011;1552;51.952;7.618;2023-04-29T11:30:49;14.43;;;10.45;;
3083;SDS011;1552;51.952;7.618;2023-04-29T11:33:15;14.63;;;10.90;;
3083;SDS011;1552;51.952;7.618;2023-04-29T11:35:42;17.50;;;10.85;;
3083;SDS011;1552;51.952;7.618;2023-04-29T11:38:08;15.27;;;11.32;;
3083;SDS011;1552;51.952;7.618;2023-04-29T11:40:40;14.07;;;9.52;;
3083;SDS011;1552;51.952;7.618;2023-04-29T11:43:06;11.85;;;9.20;;
3083;SDS011;1552;51.952;7.618;2023-04-29T11:45:33;15.98;;;10.18;;
3083;SDS011;1552;51.952;7.618;2023-04-29T11:48:00;14.38;;;10.40;;
3083;SDS011;1552;51.952;7.618;2023-04-29T11:50:28;15.30;;;9.90;;
3083;SDS011;1552;51.952;7.618;2023-04-29T11:52:56;18.20;;;12.75;;
3083;SDS011;1552;51.952;7.618;2023-04-29T11:55:23;14.48;;;10.50;;
3083;SDS011;1552;51.952;7.618;2023-04-29T11:57:51;13.63;;;10.18;;
3083;SDS011;1552;51.952;7.618;2023-04-29T12:00:17;16.85;;;10.00;;
3083;SDS011;1552;51.952;7.618;2023-04-29T12:02:44;14.00;;;9.60;;
3083;SDS011;1552;51.952;7.618;2023-04-29T12:05:11;14.95;;;9.77;;
3083;SDS011;1552;51.952;7.618;2023-04-29T12:07:39;15.88;;;10.98;;
3083;SDS011;1552;51.952;7.618;2023-04-29T12:10:07;13.32;;;9.82;;
3083;SDS011;1552;51.952;7.618;2023-04-29T12:12:33;15.50;;;10.25;;
3083;SDS011;1552;51.952;7.618;2023-04-29T12:15:01;16.45;;;10.82;;
3083;SDS011;1552;51.952;7.618;2023-04-29T12:17:29;17.30;;;11.35;;
3083;SDS011;1552;51.952;7.618;2023-04-29T12:19:56;15.90;;;10.60;;
3083;SDS011;1552;51.952;7.618;2023-04-29T12:22:22;12.98;;;9.68;;
3083;SDS011;1552;51.952;7.618;2023-04-29T12:24:55;44.42;;;24.85;;
3083;SDS011;1552;51.952;7.618;2023-04-29T12:27:22;13.90;;;11.13;;
3083;SDS011;1552;51.952;7.618;2023-04-29T12:29:50;16.90;;;10.30;;
3083;SDS011;1552;51.952;7.618;2023-04-29T12:32:20;16.67;;;11.20;;
3083;SDS011;1552;51.952;7.618;2023-04-29T12:34:49;12.82;;;8.68;;
3083;SDS011;1552;51.952;7.618;2023-04-29T12:37:16;14.37;;;9.30;;
3083;SDS011;1552;51.952;7.618;2023-04-29T12:39:42;13.83;;;9.90;;
3083;SDS011;1552;51.952;7.618;2023-04-29T12:42:13;13.17;;;9.10;;
3083;SDS011;1552;51.952;7.618;2023-04-29T12:44:40;12.98;;;9.15;;
3083;SDS011;1552;51.952;7.618;2023-04-29T12:47:07;14.70;;;9.65;;
3083;SDS011;1552;51.952;7.618;2023-04-29T12:49:35;12.75;;;9.43;;
3083;SDS011;1552;51.952;7.618;2023-04-29T12:52:01;15.18;;;9.23;;
3083;SDS011;1552;51.952;7.618;2023-04-29T12:54:28;11.63;;;10.00;;
3083;SDS011;1552;51.952;7.618;2023-04-29T12:56:54;14.57;;;9.45;;
3083;SDS011;1552;51.952;7.618;2023-04-29T12:59:21;14.38;;;9.77;;
3083;SDS011;1552;51.952;7.618;2023-04-29T13:01:47;13.52;;;8.70;;
3083;SDS011;1552;51.952;7.618;2023-04-29T13:04:13;14.82;;;9.30;;
3083;SDS011;1552;51.952;7.618;2023-04-29T13:06:41;11.15;;;8.43;;
3083;SDS011;1552;51.952;7.618;2023-04-29T13:09:08;11.38;;;7.85;;
3083;SDS011;1552;51.952;7.618;2023-04-29T13:11:36;10.93;;;8.80;;
3083;SDS011;1552;51.952;7.618;2023-04-29T13:14:02;14.40;;;9.63;;
3083;SDS011;1552;51.952;7.618;2023-04-29T13:16:30;12.02;;;8.73;;
3083;SDS011;1552;51.952;7.618;2023-04-29T13:18:57;12.10;;;9.60;;
3083;SDS011;1552;51.952;7.618;2023-04-29T13:21:23;11.80;;;8.52;;
3083;SDS011;1552;51.952;7.618;2023-04-29T13:23:53;11.55;;;9.07;;
3083;SDS011;1552;51.952;7.618;2023-04-29T13:26:19;12.60;;;8.63;;
3083;SDS011;1552;51.952;7.618;2023-04-29T13:28:45;13.07;;;8.60;;
3083;SDS011;1552;51.952;7.618;2023-04-29T13:31:12;12.30;;;8.75;;
3083;SDS011;1552;51.952;7.618;2023-04-29T13:33:38;13.75;;;9.52;;
3083;SDS011;1552;51.952;7.618;2023-04-29T13:36:05;12.50;;;8.85;;
3083;SDS011;1552;51.952;7.618;2023-04-29T13:38:31;11.82;;;8.70;;
3083;SDS011;1552;51.952;7.618;2023-04-29T13:40:59;10.77;;;8.13;;
3083;SDS011;1552;51.952;7.618;2023-04-29T13:43:25;11.13;;;8.38;;
3083;SDS011;1552;51.952;7.618;2023-04-29T13:45:52;11.15;;;8.63;;
3083;SDS011;1552;51.952;7.618;2023-04-29T13:48:18;10.48;;;7.68;;
3083;SDS011;1552;51.952;7.618;2023-04-29T13:50:45;10.82;;;7.80;;
3083;SDS011;1552;51.952;7.618;2023-04-29T13:53:11;11.13;;;7.70;;
3083;SDS011;1552;51.952;7.618;2023-04-29T13:55:37;8.20;;;6.90;;
3083;SDS011;1552;51.952;7.618;2023-04-29T13:58:05;9.10;;;7.72;;
3083;SDS011;1552;51.952;7.618;2023-04-29T14:00:32;10.65;;;7.18;;
3083;SDS011;1552;51.952;7.618;2023-04-29T14:02:58;12.05;;;7.30;;
3083;SDS011;1552;51.952;7.618;2023-04-29T14:05:25;10.00;;;7.35;;
3083;SDS011;1552;51.952;7.618;2023-04-29T14:07:51;10.40;;;6.85;;
3083;SDS011;1552;51.952;7.618;2023-04-29T14:10:18;7.82;;;5.93;;
3083;SDS011;1552;51.952;7.618;2023-04-29T14:12:44;7.90;;;6.22;;
3083;SDS011;1552;51.952;7.618;2023-04-29T14:15:12;9.52;;;5.45;;
3083;SDS011;1552;51.952;7.618;2023-04-29T14:17:39;8.18;;;4.85;;
3083;SDS011;1552;51.952;7.618;2023-04-29T14:20:06;9.38;;;5.32;;
3083;SDS011;1552;51.952;7.618;2023-04-29T14:22:32;6.43;;;4.95;;
3083;SDS011;1552;51.952;7.618;2023-04-29T14:24:58;6.88;;;4.53;;
3083;SDS011;1552;51.952;7.618;2023-04-29T14:27:25;5.72;;;4.28;;
3083;SDS011;1552;51.952;7.618;2023-04-29T14:29:51;5.07;;;4.20;;
3083;SDS011;1552;51.952;7.618;2023-04-29T14:32:19;6.10;;;4.47;;
3083;SDS011;1552;51.952;7.618;2023-04-29T14:34:45;6.05;;;4.57;;
3083;SDS011;1552;51.952;7.618;2023-04-29T14:37:11;6.72;;;4.72;;
3083;SDS011;1552;51.952;7.618;2023-04-29T14:39:38;6.95;;;4.40;;
3083;SDS011;1552;51.952;7.618;2023-04-29T14:42:04;5.82;;;4.43;;
3083;SDS011;1552;51.952;7.618;2023-04-29T14:44:30;6.72;;;4.28;;
3083;SDS011;1552;51.952;7.618;2023-04-29T14:46:57;7.25;;;4.82;;
3083;SDS011;1552;51.952;7.618;2023-04-29T14:49:25;7.93;;;4.95;;
3083;SDS011;1552;51.952;7.618;2023-04-29T14:51:51;7.32;;;4.90;;
3083;SDS011;1552;51.952;7.618;2023-04-29T14:54:17;5.18;;;4.35;;
3083;SDS011;1552;51.952;7.618;2023-04-29T14:56:43;6.40;;;4.40;;